Time;durP1;ratioP1;P1;durP2;ratioP2;P2;SDS_P1;SDS_P2;PMS_P1;PMS_P2;Temp;Humidity;BMP_temperature;BMP_pressure;BME280_temperature;BME280_humidity;BME280_pressure;Samples;Min_cycle;Max_cycle;Signal;HPM_P1;HPM_P2
2021/04/18 00:01:29;;;;;;;1.63;1.53;;;;;;;7.70;72.82;101025.38;4991214;28;20173;-73
2021/04/18 00:03:55;;;;;;;2.33;1.50;;;;;;;7.56;73.57;101032.47;4991545;28;20181;-74
2021/04/18 00:06:21;;;;;;;1.70;1.60;;;;;;;7.83;73.23;101032.13;4991174;28;20244;-74
2021/04/18 00:08:47;;;;;;;2.43;1.67;;;;;;;7.97;73.25;101035.03;4991195;28;20494;-75
2021/04/18 00:11:13;;;;;;;2.33;2.13;;;;;;;8.11;72.32;101024.38;4991147;28;20717;-74
2021/04/18 00:13:38;;;;;;;2.33;2.13;;;;;;;7.96;72.43;101022.53;4991152;28;20268;-73
2021/04/18 00:16:04;;;;;;;1.70;1.60;;;;;;;7.85;72.75;101023.69;4991149;28;20268;-74
2021/04/18 00:18:30;;;;;;;2.57;2.37;;;;;;;7.71;72.90;101037.88;4991104;28;20177;-76
2021/04/18 00:20:56;;;;;;;3.43;1.80;;;;;;;7.67;73.36;101025.94;4992897;28;20703;-75
2021/04/18 00:23:21;;;;;;;2.73;2.53;;;;;;;7.53;73.13;101034.94;4994642;28;20170;-73
2021/04/18 00:25:47;;;;;;;1.93;1.83;;;;;;;7.37;74.09;101029.53;4994711;28;20256;-73
2021/04/18 00:28:12;;;;;;;2.63;2.30;;;;;;;7.13;75.76;101028.50;4995001;28;20173;-74
2021/04/18 00:30:37;;;;;;;2.13;1.40;;;;;;;7.10;76.11;101024.44;4994903;28;20256;-74
2021/04/18 00:33:03;;;;;;;3.97;1.63;;;;;;;7.07;75.88;101024.16;4994731;28;20177;-72
2021/04/18 00:35:28;;;;;;;1.73;1.33;;;;;;;7.07;76.30;101021.44;4994811;28;20633;-73
2021/04/18 00:37:54;;;;;;;2.17;2.07;;;;;;;7.06;75.46;101017.91;4996607;28;20182;-73
2021/04/18 00:40:23;;;;;;;2.33;2.17;;;;;;;7.09;75.10;101014.66;4995989;28;20220;-72
2021/04/18 00:42:49;;;;;;;1.80;1.67;;;;;;;7.13;75.12;101012.19;4994747;28;20173;-73
2021/04/18 00:45:15;;;;;;;1.90;1.70;;;;;;;7.15;74.90;101012.72;4994327;28;20200;-74
2021/04/18 00:47:43;;;;;;;1.33;1.20;;;;;;;7.06;75.07;101009.75;4994197;28;20672;-77
2021/04/18 00:50:10;;;;;;;2.10;1.70;;;;;;;6.91;75.79;101012.47;4994367;28;20216;-75
2021/04/18 00:52:36;;;;;;;1.30;1.20;;;;;;;6.79;76.10;101011.94;4994112;28;20614;-77
2021/04/18 00:55:04;;;;;;;1.40;1.30;;;;;;;6.78;76.33;101007.59;4994218;28;20252;-73
2021/04/18 00:57:30;;;;;;;3.23;1.03;;;;;;;6.73;76.63;100999.47;4994182;28;20216;-78
2021/04/18 00:59:55;;;;;;;2.60;1.60;;;;;;;6.69;76.82;100998.38;4993983;28;20181;-77
2021/04/18 01:02:20;;;;;;;1.50;1.10;;;;;;;6.72;77.66;101000.53;4994250;28;20630;-78
2021/04/18 01:04:46;;;;;;;1.80;1.20;;;;;;;6.77;76.25;101001.34;4993932;28;20176;-77
2021/04/18 01:07:11;;;;;;;1.90;1.70;;;;;;;6.84;76.93;101006.53;4994091;28;20264;-78
2021/04/18 01:09:37;;;;;;;1.57;1.47;;;;;;;6.88;76.84;101001.34;4993927;28;20262;-79
2021/04/18 01:12:02;;;;;;;1.33;1.20;;;;;;;6.95;76.53;101004.63;4993841;28;20185;-78
2021/04/18 01:14:28;;;;;;;1.83;1.10;;;;;;;6.93;75.89;101004.88;4993795;28;20189;-76
2021/04/18 01:16:53;;;;;;;5.03;1.67;;;;;;;6.85;75.85;101000.00;4993793;28;20181;-78
2021/04/18 01:19:18;;;;;;;1.50;1.40;;;;;;;6.73;76.17;100994.03;4994107;28;20173;-79
2021/04/18 01:21:44;;;;;;;2.53;1.53;;;;;;;6.68;76.53;101003.00;5008751;28;20271;-79
2021/04/18 01:24:09;;;;;;;1.37;1.27;;;;;;;6.72;76.68;101008.69;4993530;28;20208;-76
2021/04/18 01:26:35;;;;;;;1.63;1.47;;;;;;;6.74;76.93;100996.47;4993542;28;20213;-77
2021/04/18 01:29:02;;;;;;;4.57;1.40;;;;;;;6.75;76.90;100997.28;4993512;28;20185;-79
2021/04/18 01:31:28;;;;;;;2.13;1.43;;;;;;;6.80;76.62;101003.53;4992275;28;20177;-79
2021/04/18 01:33:53;;;;;;;1.33;1.23;;;;;;;6.82;75.34;100997.84;4993430;28;20599;-79
2021/04/18 01:36:19;;;;;;;2.20;1.47;;;;;;;6.79;76.10;100984.78;4993411;28;20186;-80
2021/04/18 01:38:45;;;;;;;1.73;1.53;;;;;;;6.77;75.69;100984.25;4993732;28;20252;-78
2021/04/18 01:41:10;;;;;;;1.60;1.27;;;;;;;6.75;76.01;100981.00;4993553;28;20653;-76
2021/04/18 01:43:39;;;;;;;1.73;1.63;;;;;;;6.73;75.87;100977.72;4993178;28;20187;-77
2021/04/18 01:46:04;;;;;;;2.63;1.73;;;;;;;6.74;75.80;100985.59;4993079;28;20421;-77
2021/04/18 01:48:30;;;;;;;2.30;1.20;;;;;;;6.73;75.40;100983.16;4993538;28;20600;-81
2021/04/18 01:50:56;;;;;;;1.73;1.20;;;;;;;6.74;75.49;100979.38;4993213;28;20185;-79
2021/04/18 01:53:21;;;;;;;1.47;1.37;;;;;;;6.73;75.22;100977.72;5008039;28;20264;-77
2021/04/18 01:55:47;;;;;;;1.60;1.50;;;;;;;6.68;75.82;100981.28;4993062;28;20181;-74
2021/04/18 01:58:12;;;;;;;1.23;1.13;;;;;;;6.65;76.36;100978.28;4993100;28;20595;-79
2021/04/18 02:00:38;;;;;;;1.90;1.80;;;;;;;6.66;76.04;100983.47;4992907;28;20178;-77
2021/04/18 02:03:04;;;;;;;1.43;0.80;;;;;;;6.62;76.10;100971.50;4992893;28;20189;-76
2021/04/18 02:05:32;;;;;;;1.70;1.07;;;;;;;6.59;76.73;100977.47;4992795;28;20205;-79
2021/04/18 02:07:57;;;;;;;1.30;1.20;;;;;;;6.54;76.60;100967.44;4992765;28;20588;-76
2021/04/18 02:10:22;;;;;;;1.33;1.17;;;;;;;6.53;76.90;100968.53;5008046;28;20185;-76
2021/04/18 02:12:48;;;;;;;2.90;1.20;;;;;;;6.51;76.89;100970.69;5007605;28;20186;-73
2021/04/18 02:15:14;;;;;;;1.20;1.10;;;;;;;6.52;76.77;100971.50;4992660;28;20185;-77
2021/04/18 02:17:39;;;;;;;2.00;1.53;;;;;;;6.57;76.40;100971.50;4992704;28;20252;-77
2021/04/18 02:20:06;;;;;;;1.60;1.50;;;;;;;6.64;77.03;100973.94;4992495;28;20268;-79
2021/04/18 02:22:32;;;;;;;1.20;1.10;;;;;;;6.63;77.29;100983.16;4992413;28;20174;-76
2021/04/18 02:24:57;;;;;;;1.70;1.40;;;;;;;6.56;77.45;100973.41;4992458;28;20180;-75
2021/04/18 02:27:26;;;;;;;1.90;1.80;;;;;;;6.53;76.91;100984.00;4992729;28;20667;-79
2021/04/18 02:29:51;;;;;;;1.53;1.43;;;;;;;6.49;76.99;100983.69;4992175;28;20256;-75
2021/04/18 02:32:17;;;;;;;1.30;1.23;;;;;;;6.46;77.58;100973.38;4992170;28;20272;-80
2021/04/18 02:34:42;;;;;;;1.90;1.40;;;;;;;6.47;77.31;100985.06;4992362;28;20752;-74
2021/04/18 02:37:07;;;;;;;2.03;1.60;;;;;;;6.46;77.30;100980.72;4992359;28;20675;-79
2021/04/18 02:39:33;;;;;;;3.23;1.50;;;;;;;6.43;77.89;100995.66;4992204;28;20649;-73
2021/04/18 02:41:58;;;;;;;1.50;1.40;;;;;;;6.48;78.02;100997.53;4992084;28;20675;-76
2021/04/18 02:44:23;;;;;;;1.17;1.07;;;;;;;6.46;78.29;100994.28;4991499;28;20268;-76
2021/04/18 02:46:49;;;;;;;2.03;1.93;;;;;;;6.35;77.70;101003.50;4992289;28;20240;-79
2021/04/18 02:49:14;;;;;;;1.47;1.27;;;;;;;6.38;77.65;100997.56;4992099;28;20177;-76
2021/04/18 02:51:40;;;;;;;1.33;1.10;;;;;;;6.33;77.21;100994.81;4991886;28;20429;-77
2021/04/18 02:54:05;;;;;;;4.17;1.87;;;;;;;6.46;77.34;100999.72;4991930;28;20272;-80
2021/04/18 02:56:31;;;;;;;1.73;1.63;;;;;;;6.56;77.21;100999.72;4991965;28;20169;-79
2021/04/18 02:58:56;;;;;;;3.87;1.53;;;;;;;6.71;76.42;100997.03;4991655;28;20204;-79
2021/04/18 03:01:21;;;;;;;1.10;1.00;;;;;;;6.74;76.46;100995.66;4991765;28;20177;-76
2021/04/18 03:03:47;;;;;;;1.63;1.53;;;;;;;6.80;76.04;100989.16;4991808;28;20563;-83
2021/04/18 03:06:13;;;;;;;1.83;1.67;;;;;;;6.84;75.74;100991.03;4991643;28;20772;-78
2021/04/18 03:08:38;;;;;;;1.80;1.47;;;;;;;6.80;76.18;100997.31;4991792;28;20173;-76
2021/04/18 03:11:03;;;;;;;1.20;1.10;;;;;;;6.85;76.08;101000.00;4991757;28;20625;-77
2021/04/18 03:13:29;;;;;;;1.90;1.80;;;;;;;6.91;75.59;100992.66;4991408;28;20181;-79
2021/04/18 03:15:55;;;;;;;1.50;1.23;;;;;;;6.90;74.34;100980.16;4991811;28;20182;-80
2021/04/18 03:18:20;;;;;;;2.27;2.17;;;;;;;6.85;74.86;100983.72;4991610;28;20192;-74
2021/04/18 03:20:45;;;;;;;1.30;1.20;;;;;;;6.85;75.08;100981.81;4991873;28;20177;-74
2021/04/18 03:23:11;;;;;;;1.37;1.07;;;;;;;6.81;75.31;100985.34;4991329;28;20572;-78
2021/04/18 03:25:36;;;;;;;1.57;1.47;;;;;;;6.78;75.95;100992.13;4991511;28;20201;-77
2021/04/18 03:28:02;;;;;;;0.93;0.93;;;;;;;6.72;75.95;100997.84;4991330;28;20181;-79
2021/04/18 03:30:28;;;;;;;2.20;1.47;;;;;;;6.81;76.31;100990.78;4991381;28;20176;-73
2021/04/18 03:32:54;;;;;;;1.47;1.33;;;;;;;6.96;76.20;100995.38;4991273;28;20181;-78
2021/04/18 03:35:19;;;;;;;1.37;1.27;;;;;;;6.76;75.72;100993.47;4991497;28;20181;-79
2021/04/18 03:37:44;;;;;;;1.60;1.30;;;;;;;6.43;76.29;100995.66;4991589;28;20177;-74
2021/04/18 03:40:11;;;;;;;1.83;1.53;;;;;;;6.30;77.28;100992.66;4991229;28;20667;-79
2021/04/18 03:42:36;;;;;;;1.70;1.60;;;;;;;6.32;77.21;100990.47;4989977;28;20667;-79
2021/04/18 03:45:03;;;;;;;1.47;1.37;;;;;;;6.25;76.72;100988.84;4991330;28;20178;-76
2021/04/18 03:47:29;;;;;;;2.27;1.97;;;;;;;6.28;77.12;100990.22;4991161;28;20335;-79
2021/04/18 03:49:54;;;;;;;2.83;2.23;;;;;;;6.20;76.63;100991.53;4991299;28;20260;-76
2021/04/18 03:52:19;;;;;;;1.83;1.73;;;;;;;6.25;76.78;100994.28;4991188;28;20177;-79
2021/04/18 03:54:45;;;;;;;1.33;1.20;;;;;;;6.34;75.55;100991.84;4991278;28;20369;-75
2021/04/18 03:57:10;;;;;;;2.80;1.93;;;;;;;6.37;76.19;100991.31;4995191;28;20185;-77
2021/04/18 03:59:35;;;;;;;1.77;1.67;;;;;;;6.29;75.94;100989.13;4995216;28;20185;-75
2021/04/18 04:02:01;;;;;;;2.13;1.60;;;;;;;6.28;76.27;100992.09;4995090;28;20333;-80
2021/04/18 04:04:26;;;;;;;1.73;1.63;;;;;;;6.21;76.47;100995.06;4995328;28;20181;-77
2021/04/18 04:06:52;;;;;;;1.40;1.30;;;;;;;6.32;76.38;100988.56;4995020;28;20213;-76
2021/04/18 04:09:17;;;;;;;4.83;1.50;;;;;;;6.43;76.42;100998.38;4995003;28;20181;-75
2021/04/18 04:11:43;;;;;;;3.07;1.73;;;;;;;6.45;76.44;100995.38;4994977;28;20625;-77
2021/04/18 04:14:08;;;;;;;5.67;1.60;;;;;;;6.51;76.56;100999.75;4994709;28;20200;-73
2021/04/18 04:16:33;;;;;;;1.97;1.70;;;;;;;6.48;76.96;100998.34;4994975;28;20200;-75
2021/04/18 04:18:59;;;;;;;1.87;1.77;;;;;;;6.44;77.04;101005.41;4994922;28;20671;-75
2021/04/18 04:21:24;;;;;;;1.40;1.30;;;;;;;6.45;77.38;100998.91;4994866;28;20532;-74
2021/04/18 04:23:49;;;;;;;1.90;1.60;;;;;;;6.54;77.47;100994.56;4994730;28;20177;-80
2021/04/18 04:26:15;;;;;;;1.27;1.17;;;;;;;6.74;76.98;101006.50;4994680;28;20566;-75
2021/04/18 04:28:40;;;;;;;4.57;1.47;;;;;;;6.37;77.62;100996.75;5009719;28;20187;-79
2021/04/18 04:31:05;;;;;;;4.83;1.67;;;;;;;6.32;77.65;101009.47;4994680;28;20181;-76
2021/04/18 04:33:37;;;;;;;1.80;1.63;;;;;;;6.28;77.78;101005.66;4994660;28;20181;-78
2021/04/18 04:36:06;;;;;;;1.40;1.30;;;;;;;6.33;77.55;101011.91;4994575;28;20435;-76
2021/04/18 04:38:32;;;;;;;1.20;1.20;;;;;;;6.60;77.36;101008.13;4994554;28;20281;-78
2021/04/18 04:40:58;;;;;;;1.77;1.67;;;;;;;6.61;77.22;101004.34;4994350;28;20652;-79
2021/04/18 04:43:24;;;;;;;1.70;1.60;;;;;;;6.63;76.49;101007.59;4994382;28;20273;-76
2021/04/18 04:45:49;;;;;;;1.07;1.03;;;;;;;6.47;76.85;101007.59;4994410;28;20284;-78
2021/04/18 04:48:14;;;;;;;2.20;1.47;;;;;;;6.30;77.26;101011.63;4994592;28;20183;-76
2021/04/18 04:50:40;;;;;;;2.53;1.80;;;;;;;6.43;77.61;101005.69;4994502;28;20177;-78
2021/04/18 04:53:05;;;;;;;3.07;1.70;;;;;;;6.47;77.44;101002.16;4994226;28;20181;-76
2021/04/18 04:55:30;;;;;;;3.47;1.87;;;;;;;6.73;77.41;100999.47;4994071;28;20224;-76
2021/04/18 04:57:56;;;;;;;2.20;1.70;;;;;;;6.69;77.17;100995.66;4992932;28;20204;-76
2021/04/18 05:00:22;;;;;;;1.60;1.50;;;;;;;6.76;76.58;100999.72;4993896;28;20181;-77
2021/04/18 05:02:47;;;;;;;2.17;1.43;;;;;;;6.84;76.95;100998.38;4994286;28;20173;-78
2021/04/18 05:05:13;;;;;;;2.00;1.80;;;;;;;6.96;76.77;101000.81;4994068;28;20259;-78
2021/04/18 05:07:38;;;;;;;5.07;1.83;;;;;;;6.93;76.60;101004.06;4993610;28;20208;-79
2021/04/18 05:10:04;;;;;;;2.27;1.70;;;;;;;6.71;77.00;101001.63;4993862;28;20534;-73
2021/04/18 05:12:30;;;;;;;2.83;2.00;;;;;;;6.67;77.86;101003.28;4993836;28;20180;-81
2021/04/18 05:14:55;;;;;;;2.03;1.50;;;;;;;6.51;78.21;101003.28;4993903;28;20185;-79
2021/04/18 05:17:20;;;;;;;3.27;1.70;;;;;;;6.71;77.91;101004.34;4993794;28;20185;-79
2021/04/18 05:19:46;;;;;;;1.30;1.10;;;;;;;6.44;78.42;101007.31;4993800;28;20185;-75
2021/04/18 05:22:11;;;;;;;1.53;1.43;;;;;;;6.62;78.90;101004.06;4993662;28;20181;-76
2021/04/18 05:24:36;;;;;;;2.13;1.80;;;;;;;6.44;79.03;101007.31;4993939;28;20185;-74
2021/04/18 05:27:02;;;;;;;2.23;2.10;;;;;;;6.65;78.76;101019.00;4993674;28;20264;-74
2021/04/18 05:29:27;;;;;;;1.97;1.43;;;;;;;6.40;79.28;101012.47;4993587;28;20177;-76
2021/04/18 05:31:55;;;;;;;2.23;2.10;;;;;;;6.26;80.11;101011.38;4993656;28;20535;-74
2021/04/18 05:34:20;;;;;;;2.80;1.93;;;;;;;6.29;80.35;101013.53;4993551;28;20180;-74
2021/04/18 05:36:46;;;;;;;2.10;1.90;;;;;;;6.29;80.74;101010.81;4993349;28;20189;-80
2021/04/18 05:39:11;;;;;;;2.50;2.30;;;;;;;6.30;80.90;101009.75;4993503;28;20235;-75
2021/04/18 05:41:36;;;;;;;2.23;2.03;;;;;;;6.23;81.47;101018.16;4993197;28;20559;-77
2021/04/18 05:44:03;;;;;;;3.60;2.53;;;;;;;6.22;81.50;101021.09;4993351;28;20260;-75
2021/04/18 05:46:29;;;;;;;3.17;2.23;;;;;;;6.26;82.03;101012.19;4993329;28;20201;-79
2021/04/18 05:48:54;;;;;;;1.47;1.37;;;;;;;6.25;82.46;101013.28;4990689;28;20177;-78
2021/04/18 05:51:20;;;;;;;3.17;2.13;;;;;;;6.22;82.56;101015.69;4993227;28;20228;-74
2021/04/18 05:53:45;;;;;;;2.67;2.47;;;;;;;6.26;82.42;101012.19;4992991;28;20185;-73
2021/04/18 05:56:10;;;;;;;3.87;2.43;;;;;;;6.31;82.59;101013.28;4992895;28;20182;-76
2021/04/18 05:58:35;;;;;;;2.33;2.13;;;;;;;6.36;82.88;101011.38;4993143;28;20195;-74
2021/04/18 06:01:01;;;;;;;5.03;2.07;;;;;;;6.38;82.10;101008.41;4993124;28;20657;-80
2021/04/18 06:03:26;;;;;;;3.73;3.07;;;;;;;6.27;83.21;101010.28;4993000;28;20209;-76
2021/04/18 06:05:51;;;;;;;2.87;2.60;;;;;;;6.43;82.52;101009.22;4992908;28;20200;-77
2021/04/18 06:08:17;;;;;;;7.03;2.10;;;;;;;6.50;82.88;101007.03;4993015;28;20212;-75
2021/04/18 06:10:42;;;;;;;3.27;2.80;;;;;;;6.46;82.99;101008.69;5007976;28;20169;-75
2021/04/18 06:13:07;;;;;;;3.13;2.87;;;;;;;6.33;83.68;101011.09;4992778;28;20224;-73
2021/04/18 06:15:33;;;;;;;5.20;3.07;;;;;;;6.47;83.86;101007.59;4992756;28;20184;-76
2021/04/18 06:17:58;;;;;;;3.67;3.07;;;;;;;6.51;83.57;101008.69;4992107;28;20177;-73
2021/04/18 06:20:23;;;;;;;3.20;2.90;;;;;;;6.61;84.33;101016.00;4993268;28;20260;-76
2021/04/18 06:22:49;;;;;;;4.13;3.80;;;;;;;6.54;84.25;101005.44;4992755;28;20220;-75
2021/04/18 06:25:15;;;;;;;3.80;3.50;;;;;;;6.50;84.52;101012.47;4992813;28;20560;-76
2021/04/18 06:27:41;;;;;;;3.70;3.40;;;;;;;6.62;84.49;101011.41;4992591;28;20268;-75
2021/04/18 06:30:07;;;;;;;3.53;3.23;;;;;;;6.57;84.67;101012.22;4992631;28;20597;-79
2021/04/18 06:32:32;;;;;;;5.13;3.00;;;;;;;6.54;84.90;101010.88;4976343;28;20607;-77
2021/04/18 06:34:58;;;;;;;4.23;3.83;;;;;;;6.70;84.55;101011.69;4991919;28;20269;-81
2021/04/18 06:37:24;;;;;;;3.73;2.80;;;;;;;6.86;83.92;101012.50;4992457;28;20212;-77
2021/04/18 06:39:49;;;;;;;3.93;3.57;;;;;;;6.88;83.60;101009.50;4991818;28;20182;-78
2021/04/18 06:42:17;;;;;;;4.27;3.87;;;;;;;6.97;83.81;101005.97;4992442;28;20607;-76
2021/04/18 06:44:43;;;;;;;3.70;3.40;;;;;;;7.00;83.37;100999.97;4992532;28;20178;-77
2021/04/18 06:47:08;;;;;;;4.10;3.70;;;;;;;7.28;83.07;101003.19;4992164;28;20263;-77
2021/04/18 06:49:35;;;;;;;4.40;4.10;;;;;;;7.13;82.92;101004.84;4992252;28;20187;-79
2021/04/18 06:52:01;;;;;;;4.73;3.90;;;;;;;7.06;83.96;101001.59;4991969;28;20212;-78
2021/04/18 06:54:26;;;;;;;5.63;3.17;;;;;;;7.11;83.64;100996.16;4992303;28;20185;-73
2021/04/18 06:56:52;;;;;;;4.87;4.37;;;;;;;7.23;82.92;101001.28;4992591;28;20177;-73
2021/04/18 06:59:17;;;;;;;3.83;3.40;;;;;;;7.31;82.89;101002.63;4994693;28;20181;-73
2021/04/18 07:01:42;;;;;;;4.67;3.83;;;;;;;7.29;83.38;101002.09;4992789;28;20540;-74
2021/04/18 07:04:16;;;;;;;4.47;4.13;;;;;;;7.26;82.83;101003.47;4991931;28;20181;-75
2021/04/18 07:06:47;;;;;;;7.00;4.00;;;;;;;7.04;83.69;101002.97;4991793;28;20205;-73
2021/04/18 07:09:14;;;;;;;4.93;3.90;;;;;;;7.26;83.72;101003.47;4990636;28;20695;-76
2021/04/18 07:11:48;;;;;;;4.73;4.33;;;;;;;7.47;82.81;101005.03;4991695;28;20479;-73
2021/04/18 07:14:24;;;;;;;4.33;3.93;;;;;;;7.49;82.28;101001.22;4991564;28;20178;-72
2021/04/18 07:16:50;;;;;;;4.77;4.07;;;;;;;7.46;82.25;100992.53;4991700;28;20641;-74
2021/04/18 07:19:25;;;;;;;3.87;3.57;;;;;;;7.43;83.14;101003.16;5006610;28;20572;-73
2021/04/18 07:21:55;;;;;;;4.37;3.97;;;;;;;7.50;82.08;100997.41;4991628;28;20196;-75
2021/04/18 07:24:23;;;;;;;4.67;4.23;;;;;;;7.47;82.87;100991.44;4991469;28;20184;-73
2021/04/18 07:27:00;;;;;;;4.63;3.67;;;;;;;7.62;82.56;100995.19;4991450;28;20255;-72
2021/04/18 07:29:27;;;;;;;5.50;5.00;;;;;;;7.49;81.74;100999.31;4991415;28;20165;-72
2021/04/18 07:31:53;;;;;;;3.93;3.60;;;;;;;7.47;81.90;101001.50;4991305;28;20175;-73
2021/04/18 07:34:22;;;;;;;3.80;3.37;;;;;;;7.42;81.96;101007.78;4991284;28;20758;-73
2021/04/18 07:36:50;;;;;;;3.00;2.73;;;;;;;7.51;82.33;101008.00;4991405;28;20724;-76
2021/04/18 07:39:17;;;;;;;4.00;3.60;;;;;;;7.67;81.38;101004.16;4991349;28;20215;-74
2021/04/18 07:41:48;;;;;;;5.97;5.13;;;;;;;7.60;80.98;101000.91;4991259;28;20193;-78
2021/04/18 07:44:16;;;;;;;4.67;4.17;;;;;;;7.43;80.96;101005.88;4999124;28;20180;-78
2021/04/18 07:46:43;;;;;;;4.20;3.90;;;;;;;7.46;82.04;100995.25;5001018;28;20200;-72
2021/04/18 07:49:11;;;;;;;4.70;4.30;;;;;;;7.34;82.01;101007.53;5010500;28;20639;-73
2021/04/18 07:51:36;;;;;;;4.67;4.27;;;;;;;7.31;82.01;101016.22;5011374;28;20533;-73
2021/04/18 07:54:02;;;;;;;4.33;4.03;;;;;;;7.45;81.17;101009.13;4991204;28;20180;-73
2021/04/18 07:56:27;;;;;;;3.80;3.50;;;;;;;7.37;81.72;101001.53;4991169;28;20191;-73
2021/04/18 07:58:54;;;;;;;4.87;4.47;;;;;;;7.39;81.78;101007.53;4994368;28;20175;-72
2021/04/18 08:01:19;;;;;;;4.50;3.83;;;;;;;7.43;82.07;100998.53;5011066;28;20327;-78
2021/04/18 08:03:45;;;;;;;3.97;3.63;;;;;;;7.43;81.57;101001.25;5010640;28;20676;-73
2021/04/18 08:06:11;;;;;;;4.60;4.20;;;;;;;7.30;82.39;101001.81;5010586;28;20211;-75
2021/04/18 08:08:45;;;;;;;4.87;4.37;;;;;;;7.23;82.10;101003.19;5010708;28;20209;-73
2021/04/18 08:11:13;;;;;;;4.33;3.93;;;;;;;7.13;82.52;100994.00;5010607;28;20180;-73
2021/04/18 08:13:43;;;;;;;5.60;4.00;;;;;;;7.21;83.09;100994.50;5010447;28;20202;-73
2021/04/18 08:16:09;;;;;;;5.13;4.80;;;;;;;7.37;82.76;100996.09;5010575;28;20259;-74
2021/04/18 08:18:42;;;;;;;5.13;4.73;;;;;;;7.56;81.75;100988.97;5010888;28;20179;-75
2021/04/18 08:21:35;;;;;;;5.07;4.57;;;;;;;7.65;81.53;101000.06;5010601;28;20204;-72
2021/04/18 08:24:03;;;;;;;4.40;4.00;;;;;;;7.58;81.40;101003.09;5010415;28;20177;-73
2021/04/18 08:26:33;;;;;;;5.27;4.87;;;;;;;7.67;81.51;100998.72;5010537;28;20250;-73
2021/04/18 08:29:01;;;;;;;5.00;4.70;;;;;;;7.61;81.02;100999.00;5010929;28;20771;-73
2021/04/18 08:31:28;;;;;;;4.83;4.43;;;;;;;7.87;81.18;101000.53;5010466;28;20548;-73
2021/04/18 08:34:05;;;;;;;4.80;4.40;;;;;;;8.00;80.04;100993.66;4994481;28;20184;-73
2021/04/18 08:36:34;;;;;;;5.30;3.90;;;;;;;7.85;80.67;100993.75;4990824;28;20178;-73
2021/04/18 08:38:59;;;;;;;3.40;3.20;;;;;;;8.03;80.62;100991.19;4991153;28;20541;-73
2021/04/18 08:41:48;;;;;;;4.87;4.47;;;;;;;7.97;80.02;100994.25;4991690;28;20192;-73
2021/04/18 08:44:39;;;;;;;4.70;4.30;;;;;;;8.10;80.24;100999.06;4993156;28;20185;-73
2021/04/18 08:47:16;;;;;;;5.13;4.73;;;;;;;8.35;80.15;100998.91;4993101;28;20197;-73
2021/04/18 08:49:45;;;;;;;4.70;4.33;;;;;;;8.14;79.11;100997.41;4994281;28;20200;-74
2021/04/18 08:52:24;;;;;;;4.80;4.40;;;;;;;7.77;81.15;101000.56;4994254;28;20185;-74
2021/04/18 08:54:51;;;;;;;5.40;4.90;;;;;;;7.94;81.12;101011.09;4994254;28;20251;-79
2021/04/18 08:57:25;;;;;;;4.20;3.90;;;;;;;7.85;80.70;101002.72;4994312;28;20188;-76
2021/04/18 08:59:59;;;;;;;5.13;4.67;;;;;;;7.79;80.92;100998.38;5009228;28;20191;-73
2021/04/18 09:02:26;;;;;;;4.67;4.27;;;;;;;8.08;80.55;101006.66;4993908;28;20699;-73
2021/04/18 09:04:56;;;;;;;5.67;5.23;;;;;;;8.23;80.93;101012.03;4994245;28;20192;-73
2021/04/18 09:07:24;;;;;;;5.13;4.73;;;;;;;8.14;80.37;101011.00;4994064;28;20231;-75
2021/04/18 09:09:51;;;;;;;6.03;5.53;;;;;;;8.08;80.47;101020.28;4993914;28;20699;-73
2021/04/18 09:12:18;;;;;;;7.93;5.27;;;;;;;8.30;80.60;101009.81;4992870;28;20185;-79
2021/04/18 09:14:45;;;;;;;4.40;4.00;;;;;;;8.32;80.35;101015.78;4993392;28;20211;-78
2021/04/18 09:17:18;;;;;;;4.80;4.40;;;;;;;8.02;81.59;101011.34;4992211;28;20539;-76
2021/04/18 09:19:48;;;;;;;5.30;4.87;;;;;;;8.32;80.77;101010.34;4993462;28;20181;-80
2021/04/18 09:22:18;;;;;;;5.10;4.60;;;;;;;8.23;79.99;101006.56;4993119;28;20270;-77
2021/04/18 09:24:49;;;;;;;5.60;5.10;;;;;;;8.30;80.99;101003.56;4993288;28;20256;-74
2021/04/18 09:27:21;;;;;;;4.63;4.23;;;;;;;8.47;80.41;101009.47;4993113;28;20227;-72
2021/04/18 09:29:57;;;;;;;4.77;3.93;;;;;;;8.68;79.58;101007.41;4993183;28;20679;-74
2021/04/18 09:32:47;;;;;;;5.93;5.37;;;;;;;8.71;78.89;101004.09;4992943;28;20197;-77
2021/04/18 09:35:18;;;;;;;5.63;5.13;;;;;;;8.80;78.84;101009.75;4993337;28;20180;-77
2021/04/18 09:37:54;;;;;;;5.80;4.60;;;;;;;8.95;78.69;101013.13;5008342;28;20602;-75
2021/04/18 09:40:23;;;;;;;6.37;5.37;;;;;;;9.18;78.00;101013.50;4992891;28;20192;-76
2021/04/18 09:42:50;;;;;;;5.77;5.37;;;;;;;9.37;77.58;101013.56;4993188;28;20169;-76
2021/04/18 09:45:18;;;;;;;5.20;4.23;;;;;;;9.65;76.88;101015.41;5007693;28;20180;-74
2021/04/18 09:47:46;;;;;;;4.70;4.30;;;;;;;9.72;76.37;101006.91;4992814;28;20169;-77
2021/04/18 09:50:24;;;;;;;5.43;4.93;;;;;;;9.59;77.59;101013.06;4992773;28;20201;-77
2021/04/18 09:52:51;;;;;;;3.73;3.47;;;;;;;9.84;75.96;101020.94;5006602;28;20225;-78
2021/04/18 09:55:26;;;;;;;4.77;4.37;;;;;;;9.11;77.29;101015.72;5024255;28;20185;-78
2021/04/18 09:58:01;;;;;;;5.77;4.77;;;;;;;9.27;77.79;101008.22;4992562;28;20168;-74
2021/04/18 10:00:26;;;;;;;7.03;4.53;;;;;;;9.37;77.83;101013.56;4992538;28;20177;-76
2021/04/18 10:03:09;;;;;;;4.93;4.53;;;;;;;9.32;77.73;101008.97;4991194;28;20588;-76
2021/04/18 10:05:43;;;;;;;5.17;4.83;;;;;;;9.32;78.24;101005.44;4992464;28;20193;-78
2021/04/18 10:08:20;;;;;;;5.23;4.73;;;;;;;9.42;77.25;101003.44;4992261;28;20583;-78
2021/04/18 10:10:53;;;;;;;5.67;5.17;;;;;;;9.35;77.14;100992.03;4992453;28;20173;-76
2021/04/18 10:13:44;;;;;;;6.60;5.93;;;;;;;9.71;77.22;100997.09;4992266;28;20169;-75
2021/04/18 10:16:11;;;;;;;5.07;4.67;;;;;;;9.64;76.44;100999.34;4992240;28;20177;-76
2021/04/18 10:18:39;;;;;;;5.57;4.43;;;;;;;10.00;76.11;100992.34;4992610;28;20173;-75
2021/04/18 10:21:18;;;;;;;5.23;4.83;;;;;;;9.94;75.98;100995.41;4992155;28;20173;-77
2021/04/18 10:23:45;;;;;;;5.47;5.07;;;;;;;10.14;75.33;100987.78;4991934;28;20173;-76
2021/04/18 10:26:10;;;;;;;4.47;4.17;;;;;;;10.39;74.76;100986.59;4991974;28;20208;-75
2021/04/18 10:28:36;;;;;;;5.43;5.03;;;;;;;10.35;74.48;100982.84;4992102;28;20173;-77
2021/04/18 10:31:01;;;;;;;5.23;4.83;;;;;;;10.67;74.94;100987.50;4991953;28;20169;-75
2021/04/18 10:33:27;;;;;;;6.00;5.43;;;;;;;10.74;72.26;100984.41;4992036;28;20184;-75
2021/04/18 10:35:56;;;;;;;6.00;5.43;;;;;;;10.93;72.61;100978.88;4992149;28;20731;-77
2021/04/18 10:38:23;;;;;;;6.20;5.37;;;;;;;10.77;72.48;100974.78;4992076;28;20172;-74
2021/04/18 10:40:49;;;;;;;5.00;4.60;;;;;;;10.88;73.39;100966.13;5006792;28;20565;-77
2021/04/18 10:43:14;;;;;;;5.30;4.90;;;;;;;11.29;73.08;100979.88;5006627;28;20181;-75
2021/04/18 10:45:40;;;;;;;6.10;5.50;;;;;;;11.21;71.48;100975.09;4992058;28;20204;-77
2021/04/18 10:48:08;;;;;;;5.13;4.63;;;;;;;10.88;71.47;100977.06;5006804;28;20185;-78
2021/04/18 10:50:34;;;;;;;4.83;4.33;;;;;;;11.14;72.46;100971.94;4991545;28;20533;-74
2021/04/18 10:52:59;;;;;;;6.40;5.73;;;;;;;11.01;71.66;100970.00;4991439;28;20183;-75
2021/04/18 10:55:25;;;;;;;5.47;4.97;;;;;;;11.54;74.53;100972.25;4990963;28;20192;-76
2021/04/18 10:57:50;;;;;;;5.33;4.93;;;;;;;11.52;70.64;100971.75;4991249;28;20585;-74
2021/04/18 11:00:17;;;;;;;4.23;3.93;;;;;;;12.06;71.85;100964.63;4991307;28;20181;-76
2021/04/18 11:02:42;;;;;;;5.23;4.73;;;;;;;12.20;70.85;100966.19;4991401;28;20181;-77
2021/04/18 11:05:08;;;;;;;5.70;4.30;;;;;;;12.27;68.59;100956.72;4991262;28;20643;-76
2021/04/18 11:07:34;;;;;;;4.80;4.40;;;;;;;12.52;68.86;100965.16;4991833;28;20180;-78
2021/04/18 11:10:00;;;;;;;4.50;4.20;;;;;;;12.69;67.89;100956.22;4990506;28;20517;-78
2021/04/18 11:12:25;;;;;;;4.73;4.37;;;;;;;11.99;68.34;100953.25;4990937;28;20176;-77
2021/04/18 11:14:51;;;;;;;6.00;5.40;;;;;;;11.62;70.35;100952.38;4991187;28;20216;-75
2021/04/18 11:17:16;;;;;;;5.80;5.30;;;;;;;11.82;71.19;100951.16;4991121;28;20177;-80
2021/04/18 11:19:41;;;;;;;5.00;4.60;;;;;;;12.37;70.36;100953.75;4990649;28;20181;-79
2021/04/18 11:22:07;;;;;;;6.47;6.03;;;;;;;12.24;69.57;100954.59;4990758;28;20672;-77
2021/04/18 11:24:33;;;;;;;5.20;4.30;;;;;;;12.27;71.08;100957.53;4989335;28;20234;-76
2021/04/18 11:26:58;;;;;;;5.07;4.67;;;;;;;12.44;69.55;100954.09;4991056;28;20311;-78
2021/04/18 11:29:23;;;;;;;5.70;5.30;;;;;;;12.34;69.41;100957.94;4991307;28;20188;-78
2021/04/18 11:31:49;;;;;;;6.47;5.20;;;;;;;12.10;68.82;100969.16;4991191;28;20199;-77